Aberdeen, Kentucky
Current Conditions -  °F | °C
As of 7:53 PM on Saturday 22 Nov 2014 (Local Time) from KBWG Reporting Station
Scattered Clouds Scattered Clouds  
Wind Chill: 53°   Ceiling: Unl
Heat Index: 53°   Visibility: 10mi
Dew Point: 33°   Wind: 7mph
Humidity: 47%   Direction: 160°SSE
Pressure: 30.1"   Gusts: NA
Location:  37.25°N, 86.68°W
Report Text: KBWG 230153Z AUTO 16006KT 10SM SCT070 12/01 A3010 RMK AO2 SLP191 T01170006
Loading
Personal Weather Stations






























Interactive Weather Map New forecast layout! Learn more

10-Day Weather Forecast

Advertisements
Track Severe Weather on mobile